Fairfield, AL (35064)

6:38 PM CST on March 02, 2015 (GMT -0600)
Old House on Forest | Change Station
CLOSE
Current Station
Personal Weather Station
Location: Hueytown, AL
Elevation: 551 ft
Nearby Weather Stations

Elev 551 ft 33.44 °N, 86.99 °W | Updated 6 seconds ago

Overcast
Overcast
49.6 °F
Feels Like 50 °F
N
0.0
Wind Variable Wind from NNW
Gusts 0.0 mph

Today
High -- | Low -- °F
--% Chance of Precip.
Yesterday
High -- | Low -- °F
Precip. -- in
6:15 AM 5:45 PM
Waxing Gibbous, 93% visible
Pressure 30.29 in
Visibility 3.0 miles
Clouds Overcast 600 ft
Windchill 50 °F
Dew Point 49 °F
Humidity 98%
Rainfall 0.09 in
Snow Depth Not available.
UV 0 out of 12
Pollen 3.40 out of 12
Air Quality Not available.
Flu Activity Not available.
METAR KBHM 022353Z 01006KT 3SM BR OVC006 10/09 A3029 RMK AO2 SLP257 60013 T01000089 10106 20094 56001

More Conditions Fewer Conditions

Pressure 30.29 in
Visibility 3.0 miles
Clouds Overcast 600 ft
Windchill 50 °F
Dew Point 49 °F
Humidity 98%
Rainfall 0.09 in
Snow Depth Not available.
UV 0 out of 12
Pollen 3.40 out of 12
Air Quality Not available.
Flu Activity Not available.
METAR KBHM 022353Z 01006KT 3SM BR OVC006 10/09 A3029 RMK AO2 SLP257 60013 T01000089 10106 20094 56001

More Conditions Fewer Conditions

10-Day Weather Forecast

Almanac

Astronomy

Mar. 02, 2015 Rise Set
Actual Time
Civil Twilight
Nautical Twilight
Astronomical Twilight
Moon
Length of Visible Light
Length of Day
Tomorrow will be .
, % of the Moon is Illuminated

Today's Extremes

State Highs State Lows

Community

WunderPhotos

Upload Photos

1,802,006 photos uploaded!

WunderBlogs® & News

Nearby

Air Quality

  Air Quality AQ Index Pollutant
Not available.

Snow Depth

Station Depth Elevation

Earthquake Activity

City Distance Mag. Time & Date
Minimum magnitude displayed is 2.5.

Coastal Water Temperatures

Place Temperature

Nearby Weather Stations